createdAt,value
2018-07-07T00:00:16.987Z,16.50
2018-07-07T00:01:20.549Z,16.50
2018-07-07T00:02:24.656Z,16.40
2018-07-07T00:03:28.219Z,16.40
2018-07-07T00:04:31.804Z,16.30
2018-07-07T00:05:35.542Z,16.40
2018-07-07T00:06:39.033Z,16.40
2018-07-07T00:08:46.198Z,16.40
2018-07-07T00:10:57.903Z,16.40
2018-07-07T00:12:02.104Z,16.40
2018-07-07T00:13:05.653Z,16.40
2018-07-07T00:14:09.233Z,16.50
2018-07-07T00:15:14.142Z,16.50
2018-07-07T00:16:17.750Z,16.60
2018-07-07T00:17:21.312Z,16.60
2018-07-07T00:18:24.915Z,16.60
2018-07-07T00:19:28.745Z,16.70
2018-07-07T00:20:32.318Z,16.80
2018-07-07T00:21:36.052Z,16.80
2018-07-07T00:22:39.694Z,16.80
2018-07-07T00:23:43.205Z,16.90
2018-07-07T00:24:47.118Z,16.80
2018-07-07T00:25:50.692Z,16.70
2018-07-07T00:26:54.268Z,16.60
2018-07-07T00:27:57.766Z,16.50
2018-07-07T00:29:01.330Z,16.40
2018-07-07T00:30:04.983Z,16.30
2018-07-07T00:31:08.881Z,16.30
2018-07-07T00:32:12.918Z,16.30
2018-07-07T00:33:16.456Z,16.20
2018-07-07T00:35:23.270Z,16.10
2018-07-07T00:36:27.013Z,16.10
2018-07-07T00:37:30.531Z,16.10
2018-07-07T00:38:34.239Z,16.00
2018-07-07T00:39:38.289Z,16.00
2018-07-07T00:40:41.873Z,16.00
2018-07-07T00:41:45.987Z,16.00
2018-07-07T00:42:49.745Z,15.90
2018-07-07T00:43:54.194Z,16.00
2018-07-07T00:44:58.252Z,15.90
2018-07-07T00:46:01.858Z,15.90
2018-07-07T00:47:06.220Z,16.00
2018-07-07T00:48:09.754Z,16.10
2018-07-07T00:49:13.597Z,16.10
2018-07-07T00:50:17.121Z,16.00
2018-07-07T00:51:21.167Z,15.90
2018-07-07T00:52:24.912Z,15.90
2018-07-07T00:53:28.630Z,15.80
2018-07-07T00:54:32.918Z,15.80
2018-07-07T00:55:36.481Z,15.80
2018-07-07T00:56:40.420Z,15.70
2018-07-07T00:57:44.883Z,15.70
2018-07-07T00:58:48.857Z,15.70
2018-07-07T00:59:52.766Z,15.70
2018-07-07T01:00:56.588Z,15.60
2018-07-07T01:02:00.142Z,15.60
2018-07-07T01:03:04.167Z,15.60
2018-07-07T01:04:07.707Z,15.50
2018-07-07T01:05:44.925Z,15.60
2018-07-07T01:06:49.129Z,15.50
2018-07-07T01:07:52.693Z,15.50
2018-07-07T01:08:56.296Z,15.50
2018-07-07T01:09:59.911Z,15.50
2018-07-07T01:11:04.133Z,15.60
2018-07-07T01:12:07.862Z,15.70
2018-07-07T01:13:11.454Z,15.70
2018-07-07T01:14:15.014Z,15.70
2018-07-07T01:15:18.620Z,15.60
2018-07-07T01:16:22.168Z,15.60
2018-07-07T01:17:25.729Z,15.70
2018-07-07T01:18:29.295Z,15.80
2018-07-07T01:19:32.882Z,15.80
2018-07-07T01:20:36.460Z,15.80
2018-07-07T01:21:40.494Z,15.80
2018-07-07T01:22:44.093Z,15.70
2018-07-07T01:23:47.571Z,15.60
2018-07-07T01:24:51.070Z,15.60
2018-07-07T01:25:54.636Z,15.60
2018-07-07T01:26:58.366Z,15.50
2018-07-07T01:29:05.489Z,15.50
2018-07-07T01:30:09.124Z,15.40
2018-07-07T01:31:13.219Z,15.40
2018-07-07T01:32:16.673Z,15.50
2018-07-07T01:33:20.193Z,15.40
2018-07-07T01:34:23.762Z,15.40
2018-07-07T01:35:28.030Z,15.40
2018-07-07T01:36:31.601Z,15.40
2018-07-07T01:37:35.144Z,15.30
2018-07-07T01:38:38.616Z,15.40
2018-07-07T01:39:42.232Z,15.30
2018-07-07T01:40:45.779Z,15.20
2018-07-07T01:41:49.312Z,15.10
2018-07-07T01:42:52.913Z,15.20
2018-07-07T01:43:56.981Z,15.30
2018-07-07T01:45:00.504Z,15.20
2018-07-07T01:46:04.798Z,15.30
2018-07-07T01:47:08.286Z,15.30
2018-07-07T01:48:12.889Z,15.30
2018-07-07T01:49:16.459Z,15.20
2018-07-07T01:50:20.298Z,15.30
2018-07-07T01:51:23.770Z,15.30
2018-07-07T01:52:27.257Z,15.30
2018-07-07T01:53:30.755Z,15.40
2018-07-07T01:54:34.221Z,15.60
2018-07-07T01:55:38.062Z,15.70
2018-07-07T01:56:41.659Z,15.80
2018-07-07T01:57:45.423Z,15.70
2018-07-07T01:58:48.877Z,15.70
2018-07-07T01:59:52.328Z,15.80
2018-07-07T02:00:55.777Z,15.90
2018-07-07T02:01:59.347Z,16.00
2018-07-07T02:03:02.940Z,16.10
2018-07-07T02:04:06.513Z,16.20
2018-07-07T02:05:10.017Z,16.30
2018-07-07T02:06:14.161Z,16.30
2018-07-07T02:07:17.695Z,16.20
2018-07-07T02:08:21.362Z,16.20
2018-07-07T02:09:24.820Z,16.20
2018-07-07T02:10:28.423Z,16.10
2018-07-07T02:11:31.883Z,16.10
2018-07-07T02:12:35.438Z,16.00
2018-07-07T02:13:38.970Z,16.10
2018-07-07T02:14:42.435Z,16.10
2018-07-07T02:15:45.900Z,16.10
2018-07-07T02:16:49.388Z,16.00
2018-07-07T02:17:52.923Z,16.00
2018-07-07T02:18:56.365Z,15.90
2018-07-07T02:19:59.815Z,15.90
2018-07-07T02:21:03.357Z,15.90
2018-07-07T02:22:06.824Z,15.90
2018-07-07T02:24:13.595Z,15.90
2018-07-07T02:25:17.138Z,15.80
2018-07-07T02:26:20.752Z,15.80
2018-07-07T02:27:24.869Z,15.70
2018-07-07T02:28:29.061Z,15.70
2018-07-07T02:29:32.566Z,15.60
2018-07-07T02:30:36.342Z,15.50
2018-07-07T02:31:39.803Z,15.40
2018-07-07T02:32:43.276Z,15.50
2018-07-07T02:33:46.845Z,15.50
2018-07-07T02:34:50.305Z,15.50
2018-07-07T02:35:53.761Z,15.40
2018-07-07T02:36:57.264Z,15.50
2018-07-07T02:38:00.715Z,15.50
2018-07-07T02:39:05.793Z,15.50
2018-07-07T02:40:09.248Z,15.40
2018-07-07T02:41:12.974Z,15.50
2018-07-07T02:42:16.746Z,15.40
2018-07-07T02:43:20.230Z,15.50
2018-07-07T02:44:23.710Z,15.60
2018-07-07T02:45:27.203Z,15.50
2018-07-07T02:46:30.728Z,15.60
2018-07-07T02:47:34.188Z,15.60
2018-07-07T02:48:37.675Z,15.60
2018-07-07T02:49:41.259Z,15.60
2018-07-07T02:50:44.941Z,15.60
2018-07-07T02:51:48.409Z,15.60
2018-07-07T02:52:51.968Z,15.60
2018-07-07T02:53:55.592Z,15.50
2018-07-07T02:54:59.117Z,15.60
2018-07-07T02:56:02.815Z,15.70
2018-07-07T02:57:06.300Z,15.80
2018-07-07T02:58:09.808Z,15.90
2018-07-07T02:59:13.810Z,15.90
2018-07-07T03:00:17.373Z,15.90
2018-07-07T03:01:21.545Z,15.90
2018-07-07T03:02:25.377Z,15.90
2018-07-07T03:03:29.106Z,15.90
2018-07-07T03:04:33.205Z,15.90
2018-07-07T03:05:36.750Z,15.90
2018-07-07T03:06:40.848Z,15.80
2018-07-07T03:07:45.040Z,15.70
2018-07-07T03:08:49.243Z,15.70
2018-07-07T03:09:52.821Z,15.60
2018-07-07T03:10:56.654Z,15.50
2018-07-07T03:12:00.130Z,15.50
2018-07-07T03:13:03.789Z,15.50
2018-07-07T03:14:07.460Z,15.50
2018-07-07T03:15:16.442Z,15.40
2018-07-07T03:16:20.052Z,15.40
2018-07-07T03:17:23.522Z,15.30
2018-07-07T03:18:27.024Z,15.30
2018-07-07T03:19:30.489Z,15.20
2018-07-07T03:20:34.014Z,15.10
2018-07-07T03:21:38.060Z,15.10
2018-07-07T03:22:41.679Z,15.00
2018-07-07T03:23:45.352Z,15.10
2018-07-07T03:24:48.892Z,15.20
2018-07-07T03:25:52.744Z,15.10
2018-07-07T03:26:56.302Z,15.30
2018-07-07T03:27:59.781Z,15.30
2018-07-07T03:29:03.662Z,15.50
2018-07-07T03:30:07.620Z,15.40
2018-07-07T03:31:11.174Z,15.40
2018-07-07T03:32:14.648Z,15.40
2018-07-07T03:33:18.168Z,15.30
2018-07-07T03:34:21.737Z,15.30
2018-07-07T03:35:25.237Z,15.30
2018-07-07T03:36:28.956Z,15.20
2018-07-07T03:37:32.427Z,15.20
2018-07-07T03:38:35.899Z,15.20
2018-07-07T03:39:39.708Z,15.30
2018-07-07T03:40:43.145Z,15.30
2018-07-07T03:41:46.621Z,15.30
2018-07-07T03:42:50.076Z,15.30
2018-07-07T03:43:53.661Z,15.50
2018-07-07T03:44:57.658Z,15.60
2018-07-07T03:46:01.186Z,15.70
2018-07-07T03:47:05.047Z,15.60
2018-07-07T03:48:08.551Z,15.60
2018-07-07T03:49:12.228Z,15.60
2018-07-07T03:50:15.685Z,15.70
2018-07-07T03:51:19.149Z,15.70
2018-07-07T03:52:23.167Z,16.00
2018-07-07T03:54:29.925Z,16.30
2018-07-07T03:55:33.513Z,16.30
2018-07-07T03:56:37.044Z,16.50
2018-07-07T03:57:40.589Z,16.50
2018-07-07T03:58:44.183Z,16.60
2018-07-07T03:59:47.611Z,16.80
2018-07-07T04:00:51.906Z,17.00
2018-07-07T04:01:55.398Z,17.10
2018-07-07T04:02:58.875Z,17.30
2018-07-07T04:04:02.328Z,17.40
2018-07-07T04:05:05.963Z,17.60
2018-07-07T04:06:09.515Z,17.70
2018-07-07T04:07:13.138Z,17.90
2018-07-07T04:08:16.600Z,18.20
2018-07-07T04:09:20.059Z,18.60
2018-07-07T04:10:23.583Z,18.90
2018-07-07T04:11:27.138Z,19.20
2018-07-07T04:12:30.688Z,19.40
2018-07-07T04:13:34.162Z,19.70
2018-07-07T04:14:37.690Z,19.90
2018-07-07T04:15:41.356Z,20.20
2018-07-07T04:16:44.850Z,20.50
2018-07-07T04:17:48.368Z,20.80
2018-07-07T04:18:51.988Z,20.90
2018-07-07T04:19:55.486Z,21.00
2018-07-07T04:20:59.245Z,21.00
2018-07-07T04:22:02.792Z,21.00
2018-07-07T04:23:06.733Z,20.90
2018-07-07T04:24:10.331Z,20.90
2018-07-07T04:25:14.058Z,20.90
2018-07-07T04:26:17.521Z,20.80
2018-07-07T04:27:20.988Z,20.80
2018-07-07T04:28:24.901Z,20.90
2018-07-07T04:29:28.593Z,20.80
2018-07-07T04:30:32.162Z,21.00
2018-07-07T04:31:35.645Z,21.20
2018-07-07T04:32:39.223Z,21.50
2018-07-07T04:33:42.909Z,21.90
2018-07-07T04:34:46.360Z,22.10
2018-07-07T04:36:53.606Z,22.40
2018-07-07T04:37:57.185Z,22.50
2018-07-07T04:39:00.661Z,22.70
2018-07-07T04:40:04.380Z,22.90
2018-07-07T04:41:07.859Z,23.10
2018-07-07T04:42:11.417Z,23.30
2018-07-07T04:43:15.095Z,23.50
2018-07-07T04:44:18.598Z,23.70
2018-07-07T04:45:22.224Z,23.90
2018-07-07T04:46:25.841Z,23.90
2018-07-07T04:47:29.404Z,24.00
2018-07-07T04:48:32.911Z,24.10
2018-07-07T04:49:36.509Z,24.10
2018-07-07T04:50:40.502Z,23.80
2018-07-07T04:51:44.364Z,23.50
2018-07-07T04:52:47.898Z,23.30
2018-07-07T04:53:51.405Z,23.20
2018-07-07T04:54:54.909Z,23.20
2018-07-07T04:55:58.608Z,23.20
2018-07-07T04:57:02.052Z,23.20
2018-07-07T04:58:05.603Z,23.50
2018-07-07T04:59:09.692Z,23.80
2018-07-07T05:00:13.459Z,24.10
2018-07-07T05:01:17.115Z,24.50
2018-07-07T05:02:20.658Z,24.80
2018-07-07T05:03:24.202Z,25.00
2018-07-07T05:04:27.817Z,25.10
2018-07-07T05:05:31.505Z,25.00
2018-07-07T05:06:35.195Z,25.10
2018-07-07T05:07:38.758Z,25.10
2018-07-07T05:08:42.889Z,25.40
2018-07-07T05:09:46.904Z,25.30
2018-07-07T05:11:53.921Z,25.60
2018-07-07T05:12:57.463Z,25.50
2018-07-07T05:14:01.738Z,25.40
2018-07-07T05:15:05.383Z,25.40
2018-07-07T05:16:09.922Z,25.60
2018-07-07T05:17:14.038Z,25.70
2018-07-07T05:18:17.502Z,25.60
2018-07-07T05:19:21.178Z,25.40
2018-07-07T05:20:24.678Z,25.50
2018-07-07T05:21:28.324Z,25.50
2018-07-07T05:22:32.113Z,25.70
2018-07-07T05:23:36.309Z,25.60
2018-07-07T05:24:39.812Z,25.50
2018-07-07T05:25:43.280Z,25.40
2018-07-07T05:26:47.412Z,25.10
2018-07-07T05:27:50.875Z,24.80
2018-07-07T05:28:54.451Z,24.80
2018-07-07T05:29:58.393Z,24.80
2018-07-07T05:32:05.208Z,24.80
2018-07-07T05:33:08.635Z,24.80
2018-07-07T05:34:12.276Z,24.90
2018-07-07T05:35:15.981Z,24.70
2018-07-07T05:36:20.207Z,24.60
2018-07-07T05:37:23.762Z,24.50
2018-07-07T05:38:27.320Z,24.40
2018-07-07T05:40:34.970Z,24.60
2018-07-07T05:41:38.451Z,24.90
2018-07-07T05:42:41.919Z,25.20
2018-07-07T05:43:45.426Z,25.30
2018-07-07T05:44:49.063Z,25.30
2018-07-07T05:45:52.601Z,25.30
2018-07-07T05:46:56.112Z,25.40
2018-07-07T05:47:59.685Z,25.30
2018-07-07T05:49:03.288Z,25.30
2018-07-07T05:50:06.883Z,25.40
2018-07-07T05:51:10.294Z,25.30
2018-07-07T05:52:13.863Z,25.50
2018-07-07T05:53:17.724Z,25.30
2018-07-07T05:54:21.253Z,25.20
2018-07-07T05:55:24.776Z,25.40
2018-07-07T05:56:29.492Z,25.50
2018-07-07T05:57:33.067Z,25.80
2018-07-07T05:58:36.632Z,26.00
2018-07-07T05:59:40.147Z,26.20
2018-07-07T06:00:43.682Z,26.40
2018-07-07T06:01:47.191Z,26.60
2018-07-07T06:02:50.777Z,26.60
2018-07-07T06:03:54.325Z,26.40
2018-07-07T06:04:57.861Z,26.30
2018-07-07T06:06:01.472Z,26.60
2018-07-07T06:07:05.122Z,26.50
2018-07-07T06:08:08.744Z,26.60
2018-07-07T06:09:12.743Z,27.00
2018-07-07T06:10:16.327Z,27.10
2018-07-07T06:11:19.834Z,27.30
2018-07-07T06:12:23.375Z,27.50
2018-07-07T06:13:27.017Z,27.60
2018-07-07T06:14:30.657Z,27.90
2018-07-07T06:15:34.112Z,28.20
2018-07-07T06:16:37.650Z,28.10
2018-07-07T06:17:41.954Z,28.10
2018-07-07T06:18:45.509Z,28.20
2018-07-07T06:19:49.004Z,28.40
2018-07-07T06:20:52.640Z,28.00
2018-07-07T06:21:56.138Z,28.00
2018-07-07T06:22:59.607Z,28.00
2018-07-07T06:24:03.137Z,28.10
2018-07-07T06:25:07.781Z,28.10
2018-07-07T06:26:11.426Z,28.00
2018-07-07T06:27:15.162Z,28.00
2018-07-07T06:28:18.733Z,27.80
2018-07-07T06:29:22.298Z,28.00
2018-07-07T06:30:25.859Z,28.10
2018-07-07T06:31:29.930Z,28.50
2018-07-07T06:32:33.629Z,28.70
2018-07-07T06:33:37.126Z,28.70
2018-07-07T06:34:40.698Z,28.90
2018-07-07T06:35:44.443Z,29.00
2018-07-07T06:36:47.986Z,29.10
2018-07-07T06:37:51.533Z,29.30
2018-07-07T06:38:55.054Z,29.50
2018-07-07T06:39:58.585Z,29.70
2018-07-07T06:41:02.126Z,29.60
2018-07-07T06:42:05.696Z,29.50
2018-07-07T06:43:09.619Z,29.30
2018-07-07T06:44:13.407Z,29.30
2018-07-07T06:45:17.150Z,29.10
2018-07-07T06:46:20.692Z,29.10
2018-07-07T06:47:24.183Z,29.40
2018-07-07T06:48:27.755Z,29.60
2018-07-07T06:49:31.447Z,30.00
2018-07-07T06:50:34.970Z,30.40
2018-07-07T06:51:38.498Z,30.80
2018-07-07T06:52:42.318Z,31.10
2018-07-07T06:53:45.834Z,31.20
2018-07-07T06:54:49.365Z,31.60
2018-07-07T06:55:52.864Z,32.10
2018-07-07T06:56:56.364Z,32.50
2018-07-07T06:57:59.891Z,32.20
2018-07-07T06:59:03.397Z,32.00
2018-07-07T07:00:06.984Z,31.70
2018-07-07T07:01:10.590Z,32.00
2018-07-07T07:02:14.256Z,32.30
2018-07-07T07:03:17.822Z,32.30
2018-07-07T07:04:21.368Z,32.20
2018-07-07T07:05:24.980Z,32.20
2018-07-07T07:06:28.488Z,32.00
2018-07-07T07:07:32.096Z,32.00
2018-07-07T07:08:35.645Z,32.20
2018-07-07T07:09:43.863Z,32.50
2018-07-07T07:10:48.321Z,32.70
2018-07-07T07:12:55.047Z,32.80
2018-07-07T07:13:58.990Z,32.70
2018-07-07T07:15:02.492Z,32.70
2018-07-07T07:16:06.167Z,32.70
2018-07-07T07:17:09.763Z,32.60
2018-07-07T07:18:13.427Z,32.50
2018-07-07T07:19:16.977Z,32.50
2018-07-07T07:20:20.673Z,32.80
2018-07-07T07:21:24.326Z,32.90
2018-07-07T07:22:27.917Z,33.10
2018-07-07T07:23:31.584Z,33.40
2018-07-07T07:24:35.823Z,33.40
2018-07-07T07:25:39.353Z,33.70
2018-07-07T07:26:42.853Z,33.90
2018-07-07T07:27:46.353Z,34.10
2018-07-07T07:28:50.077Z,34.20
2018-07-07T07:29:53.530Z,34.30
2018-07-07T07:30:57.028Z,34.60
2018-07-07T07:32:00.564Z,34.40
2018-07-07T07:33:04.195Z,33.80
2018-07-07T07:34:07.790Z,33.70
2018-07-07T07:35:11.479Z,33.30
2018-07-07T07:36:15.206Z,32.90
2018-07-07T07:37:18.756Z,32.90
2018-07-07T07:38:22.468Z,32.80
2018-07-07T07:39:27.144Z,32.70
2018-07-07T07:40:31.115Z,32.50
2018-07-07T07:41:34.914Z,32.40
2018-07-07T07:42:38.423Z,32.40
2018-07-07T07:43:41.988Z,32.40
2018-07-07T07:44:45.498Z,32.50
2018-07-07T07:45:49.653Z,32.50
2018-07-07T07:46:53.606Z,32.30
2018-07-07T07:47:57.243Z,32.30
2018-07-07T07:49:00.818Z,32.60
2018-07-07T07:50:04.369Z,32.60
2018-07-07T07:51:08.119Z,32.80
2018-07-07T07:52:11.863Z,32.60
2018-07-07T07:53:15.331Z,32.50
2018-07-07T07:54:18.833Z,32.50
2018-07-07T07:55:22.484Z,32.60
2018-07-07T07:56:27.144Z,32.90
2018-07-07T07:57:30.721Z,32.90
2018-07-07T07:58:34.225Z,33.20
2018-07-07T07:59:37.688Z,33.20
2018-07-07T08:00:41.972Z,32.90
2018-07-07T08:01:46.265Z,33.10
2018-07-07T08:02:49.780Z,33.00
2018-07-07T08:03:53.283Z,32.70
2018-07-07T08:04:58.215Z,32.60
2018-07-07T08:06:01.729Z,32.60
2018-07-07T08:07:05.314Z,32.50
2018-07-07T08:08:08.851Z,32.00
2018-07-07T08:09:13.530Z,32.10
2018-07-07T08:10:17.054Z,32.10
2018-07-07T08:11:20.731Z,32.10
2018-07-07T08:12:24.377Z,32.20
2018-07-07T08:13:27.894Z,32.40
2018-07-07T08:14:31.409Z,32.40
2018-07-07T08:15:34.937Z,32.60
2018-07-07T08:16:38.606Z,33.00
2018-07-07T08:17:42.168Z,32.80
2018-07-07T08:18:45.777Z,32.50
2018-07-07T08:19:49.242Z,32.40
2018-07-07T08:20:52.757Z,32.50
2018-07-07T08:21:56.567Z,32.90
2018-07-07T08:23:00.218Z,33.10
2018-07-07T08:24:03.784Z,33.10
2018-07-07T08:25:07.347Z,33.00
2018-07-07T08:26:11.307Z,32.90
2018-07-07T08:27:15.598Z,32.90
2018-07-07T08:28:19.245Z,33.20
2018-07-07T08:30:26.218Z,33.10
2018-07-07T08:31:29.865Z,33.20
2018-07-07T08:32:33.353Z,33.00
2018-07-07T08:33:36.921Z,33.10
2018-07-07T08:34:40.459Z,33.10
2018-07-07T08:35:44.032Z,33.10
2018-07-07T08:36:47.562Z,33.10
2018-07-07T08:37:51.138Z,33.20
2018-07-07T08:38:54.696Z,33.20
2018-07-07T08:39:58.237Z,33.30
2018-07-07T08:42:05.117Z,33.30
2018-07-07T08:43:08.968Z,33.40
2018-07-07T08:44:13.604Z,33.30
2018-07-07T08:45:17.157Z,33.40
2018-07-07T08:46:20.669Z,33.30
2018-07-07T08:47:24.202Z,32.80
2018-07-07T08:48:27.771Z,32.00
2018-07-07T08:49:31.913Z,31.90
2018-07-07T08:51:55.811Z,31.50
2018-07-07T08:52:59.381Z,31.10
2018-07-07T08:54:02.944Z,30.50
2018-07-07T08:55:06.585Z,30.10
2018-07-07T08:56:10.378Z,30.10
2018-07-07T08:57:14.083Z,29.90
2018-07-07T08:58:17.597Z,29.60
2018-07-07T08:59:21.135Z,29.70
2018-07-07T09:00:24.707Z,29.60
2018-07-07T09:01:28.321Z,29.50
2018-07-07T09:02:31.922Z,29.70
2018-07-07T09:03:35.561Z,29.90
2018-07-07T09:04:39.182Z,30.30
2018-07-07T09:05:42.750Z,30.50
2018-07-07T09:06:46.354Z,30.50
2018-07-07T09:08:53.223Z,31.10
2018-07-07T09:09:56.893Z,31.10
2018-07-07T09:11:00.428Z,30.80
2018-07-07T09:12:04.015Z,29.60
2018-07-07T09:13:07.600Z,28.60
2018-07-07T09:14:11.253Z,28.10
2018-07-07T09:15:15.502Z,27.90
2018-07-07T09:16:19.105Z,28.00
2018-07-07T09:17:22.659Z,28.30
2018-07-07T09:18:26.251Z,28.20
2018-07-07T09:19:29.814Z,27.80
2018-07-07T09:20:33.352Z,27.80
2018-07-07T09:21:36.922Z,27.60
2018-07-07T09:22:40.396Z,27.70
2018-07-07T09:23:44.276Z,27.90
2018-07-07T09:24:48.006Z,28.00
2018-07-07T09:25:51.917Z,28.10
2018-07-07T09:26:55.654Z,28.30
2018-07-07T09:27:59.479Z,28.40
2018-07-07T09:29:03.406Z,28.70
2018-07-07T09:30:06.966Z,29.10
2018-07-07T09:31:11.086Z,29.10
2018-07-07T09:32:14.774Z,29.20
2018-07-07T09:33:18.348Z,29.10
2018-07-07T09:34:21.939Z,29.10
2018-07-07T09:35:25.895Z,29.10
2018-07-07T09:36:29.588Z,29.20
2018-07-07T09:37:33.173Z,29.50
2018-07-07T09:38:36.767Z,29.30
2018-07-07T09:39:40.409Z,29.40
2018-07-07T09:40:43.906Z,29.60
2018-07-07T09:41:47.683Z,29.70
2018-07-07T09:42:51.353Z,30.00
2018-07-07T09:43:54.933Z,29.80
2018-07-07T09:44:58.508Z,29.60
2018-07-07T09:46:02.165Z,29.40
2018-07-07T09:47:05.762Z,29.30
2018-07-07T09:48:09.313Z,29.10
2018-07-07T09:49:13.175Z,29.00
2018-07-07T09:50:16.897Z,28.90
2018-07-07T09:51:20.545Z,28.90
2018-07-07T09:52:24.103Z,28.70
2018-07-07T09:53:27.661Z,28.60
2018-07-07T09:54:31.214Z,28.60
2018-07-07T09:55:34.755Z,28.50
2018-07-07T09:56:38.362Z,28.30
2018-07-07T09:57:41.914Z,28.50
2018-07-07T09:58:45.580Z,28.40
2018-07-07T09:59:49.301Z,28.50
2018-07-07T10:00:52.871Z,28.30
2018-07-07T10:01:56.479Z,28.20
2018-07-07T10:02:59.959Z,28.00
2018-07-07T10:04:03.534Z,27.80
2018-07-07T10:05:07.290Z,27.60
2018-07-07T10:06:11.048Z,27.60
2018-07-07T10:07:14.647Z,27.60
2018-07-07T10:08:18.145Z,27.50
2018-07-07T10:09:21.742Z,27.30
2018-07-07T10:10:25.311Z,27.20
2018-07-07T10:11:28.936Z,27.00
2018-07-07T10:12:32.527Z,26.90
2018-07-07T10:13:36.152Z,26.90
2018-07-07T10:14:39.667Z,26.90
2018-07-07T10:15:43.211Z,26.80
2018-07-07T10:16:46.822Z,26.70
2018-07-07T10:17:50.407Z,26.60
2018-07-07T10:18:53.988Z,26.40
2018-07-07T10:19:57.560Z,26.20
2018-07-07T10:21:01.175Z,26.00
2018-07-07T10:22:04.791Z,25.80
2018-07-07T10:23:08.379Z,25.40
2018-07-07T10:24:12.082Z,25.30
2018-07-07T10:25:15.917Z,25.30
2018-07-07T10:26:19.502Z,25.20
2018-07-07T10:27:23.008Z,25.10
2018-07-07T10:28:26.534Z,25.10
2018-07-07T10:29:30.354Z,25.10
2018-07-07T10:30:33.961Z,25.10
2018-07-07T10:31:37.679Z,25.00
2018-07-07T10:32:41.256Z,24.90
2018-07-07T10:33:44.826Z,24.60
2018-07-07T10:34:48.397Z,24.60
2018-07-07T10:35:51.950Z,24.60
2018-07-07T10:36:55.510Z,24.50
2018-07-07T10:37:59.065Z,24.50
2018-07-07T10:39:02.687Z,24.50
2018-07-07T10:40:06.255Z,24.50
2018-07-07T10:41:09.887Z,24.60
2018-07-07T10:42:13.548Z,24.60
2018-07-07T10:43:17.073Z,24.60
2018-07-07T10:44:20.647Z,24.60
2018-07-07T10:45:24.241Z,24.60
2018-07-07T10:46:27.763Z,24.70
2018-07-07T10:47:31.712Z,24.80
2018-07-07T10:48:35.258Z,24.80
2018-07-07T10:49:38.805Z,24.80
2018-07-07T10:50:42.355Z,24.90
2018-07-07T10:51:45.951Z,24.80
2018-07-07T10:52:49.509Z,24.90
2018-07-07T10:53:53.220Z,24.90
2018-07-07T10:54:56.795Z,25.00
2018-07-07T10:56:00.374Z,25.00
2018-07-07T10:57:04.076Z,24.90
2018-07-07T10:58:07.624Z,24.90
2018-07-07T10:59:11.211Z,24.90
2018-07-07T11:00:14.796Z,24.90
2018-07-07T11:01:18.323Z,24.80
2018-07-07T11:02:21.914Z,24.70
2018-07-07T11:03:25.434Z,24.60
2018-07-07T11:04:29.171Z,24.50
2018-07-07T11:05:32.782Z,24.50
2018-07-07T11:06:36.330Z,24.50
2018-07-07T11:07:39.834Z,24.60
2018-07-07T11:08:43.512Z,24.60
2018-07-07T11:09:47.110Z,24.70
2018-07-07T11:10:50.713Z,24.60
2018-07-07T11:11:54.564Z,24.60
2018-07-07T11:12:57.937Z,24.60
2018-07-07T11:14:01.485Z,24.60
2018-07-07T11:15:05.112Z,24.60
2018-07-07T11:16:08.766Z,24.60
2018-07-07T11:17:12.647Z,24.50
2018-07-07T11:18:16.233Z,24.50
2018-07-07T11:19:19.974Z,24.50
2018-07-07T11:20:23.626Z,24.60
2018-07-07T11:21:27.433Z,24.60
2018-07-07T11:22:30.967Z,24.50
2018-07-07T11:23:34.585Z,24.50
2018-07-07T11:24:38.146Z,24.40
2018-07-07T11:25:41.685Z,24.50
2018-07-07T11:26:45.283Z,24.60
2018-07-07T11:27:49.119Z,24.60
2018-07-07T11:28:52.776Z,24.60
2018-07-07T11:29:56.311Z,24.70
2018-07-07T11:30:59.865Z,24.60
2018-07-07T11:32:03.429Z,24.50
2018-07-07T11:33:07.028Z,24.50
2018-07-07T11:34:10.872Z,24.30
2018-07-07T11:35:14.846Z,24.20
2018-07-07T11:36:18.508Z,24.20
2018-07-07T11:37:22.110Z,24.10
2018-07-07T11:38:25.805Z,24.10
2018-07-07T11:39:30.314Z,24.00
2018-07-07T11:40:34.182Z,24.00
2018-07-07T11:41:37.827Z,24.10
2018-07-07T11:42:42.033Z,23.90
2018-07-07T11:43:45.672Z,23.80
2018-07-07T11:44:49.278Z,23.80
2018-07-07T11:45:52.969Z,23.70
2018-07-07T11:46:56.572Z,23.60
2018-07-07T11:48:00.178Z,23.70
2018-07-07T11:49:03.787Z,23.60
2018-07-07T11:50:07.398Z,23.70
2018-07-07T11:51:11.497Z,23.80
2018-07-07T11:52:15.123Z,23.90
2018-07-07T11:54:21.881Z,24.00
2018-07-07T11:55:25.525Z,23.90
2018-07-07T11:56:29.150Z,23.90
2018-07-07T11:57:33.039Z,23.90
2018-07-07T11:58:36.688Z,23.90
2018-07-07T11:59:40.345Z,23.90
2018-07-07T12:00:43.966Z,24.00
2018-07-07T12:01:47.555Z,24.10
2018-07-07T12:02:51.246Z,24.00
2018-07-07T12:04:58.239Z,24.00
2018-07-07T12:06:01.870Z,24.10
2018-07-07T12:07:05.521Z,24.10
2018-07-07T12:08:13.871Z,24.20
2018-07-07T12:09:12.981Z,24.10
2018-07-07T12:10:16.570Z,24.20
2018-07-07T12:11:20.147Z,24.40
2018-07-07T12:12:23.738Z,24.50
2018-07-07T12:13:27.361Z,24.60
2018-07-07T12:14:31.053Z,24.70
2018-07-07T12:15:34.626Z,24.70
2018-07-07T12:16:38.237Z,24.70
2018-07-07T12:17:41.890Z,24.80
2018-07-07T12:18:45.489Z,24.80
2018-07-07T12:19:49.102Z,24.90
2018-07-07T12:20:52.987Z,24.80
2018-07-07T12:21:56.553Z,24.60
2018-07-07T12:23:00.199Z,24.60
2018-07-07T12:24:03.769Z,24.60
2018-07-07T12:25:07.378Z,24.70
2018-07-07T12:26:11.120Z,24.80
2018-07-07T12:27:14.826Z,24.80
2018-07-07T12:28:18.408Z,24.80
2018-07-07T12:29:21.981Z,24.90
2018-07-07T12:30:25.523Z,24.80
2018-07-07T12:31:29.310Z,24.90
2018-07-07T12:32:32.781Z,24.90
2018-07-07T12:33:36.375Z,24.90
2018-07-07T12:34:39.865Z,24.90
2018-07-07T12:35:43.386Z,25.00
2018-07-07T12:36:47.004Z,25.10
2018-07-07T12:37:50.672Z,25.10
2018-07-07T12:38:54.212Z,25.20
2018-07-07T12:39:57.778Z,25.10
2018-07-07T12:41:01.315Z,25.10
2018-07-07T12:42:04.879Z,25.20
2018-07-07T12:43:08.423Z,25.40
2018-07-07T12:44:12.100Z,25.40
2018-07-07T12:45:15.719Z,25.40
2018-07-07T12:46:19.251Z,25.40
2018-07-07T12:47:22.863Z,25.50
2018-07-07T12:48:26.944Z,25.40
2018-07-07T12:49:30.659Z,25.40
2018-07-07T12:50:34.194Z,25.30
2018-07-07T12:51:37.795Z,25.20
2018-07-07T12:52:41.325Z,25.10
2018-07-07T12:53:44.971Z,24.80
2018-07-07T12:54:48.630Z,24.60
2018-07-07T12:55:52.340Z,24.60
2018-07-07T12:56:55.974Z,24.60
2018-07-07T12:57:59.565Z,24.70
2018-07-07T12:59:03.170Z,24.80
2018-07-07T13:00:07.114Z,24.80
2018-07-07T13:01:10.802Z,24.90
2018-07-07T13:02:14.462Z,24.90
2018-07-07T13:03:18.116Z,24.90
2018-07-07T13:04:21.730Z,24.90
2018-07-07T13:05:25.436Z,24.80
2018-07-07T13:06:29.047Z,24.80
2018-07-07T13:07:32.931Z,24.80
2018-07-07T13:08:36.518Z,24.80
2018-07-07T13:09:40.036Z,24.80
2018-07-07T13:10:43.639Z,24.80
2018-07-07T13:11:47.357Z,24.80
2018-07-07T13:12:50.901Z,24.90
2018-07-07T13:13:54.490Z,24.90
2018-07-07T13:14:58.135Z,24.90
2018-07-07T13:16:01.741Z,25.10
2018-07-07T13:17:05.432Z,25.10
2018-07-07T13:18:09.034Z,25.10
2018-07-07T13:19:12.793Z,25.10
2018-07-07T13:20:16.309Z,24.90
2018-07-07T13:21:19.870Z,24.90
2018-07-07T13:22:23.383Z,24.90
2018-07-07T13:23:26.905Z,24.80
2018-07-07T13:24:30.430Z,24.70
2018-07-07T13:25:33.918Z,24.70
2018-07-07T13:26:37.559Z,24.60
2018-07-07T13:27:41.030Z,24.70
2018-07-07T13:28:44.565Z,24.80
2018-07-07T13:29:48.088Z,24.80
2018-07-07T13:30:51.637Z,24.80
2018-07-07T13:31:55.157Z,24.90
2018-07-07T13:32:58.729Z,25.00
2018-07-07T13:34:02.423Z,25.10
2018-07-07T13:36:09.207Z,25.30
2018-07-07T13:37:12.870Z,25.30
2018-07-07T13:38:16.445Z,25.40
2018-07-07T13:39:19.998Z,25.40
2018-07-07T13:40:23.505Z,25.60
2018-07-07T13:41:27.064Z,25.70
2018-07-07T13:42:30.678Z,25.70
2018-07-07T13:43:34.248Z,25.70
2018-07-07T13:44:37.859Z,25.70
2018-07-07T13:45:41.562Z,25.70
2018-07-07T13:46:45.327Z,25.60
2018-07-07T13:47:49.042Z,25.60
2018-07-07T13:48:52.743Z,25.50
2018-07-07T13:49:56.425Z,25.50
2018-07-07T13:50:59.955Z,25.60
2018-07-07T13:52:03.621Z,25.60
2018-07-07T13:53:07.352Z,25.50
2018-07-07T13:54:11.139Z,25.60
2018-07-07T13:55:14.873Z,25.60
2018-07-07T13:56:18.577Z,25.60
2018-07-07T13:57:22.194Z,25.70
2018-07-07T13:58:26.058Z,25.60
2018-07-07T13:59:30.070Z,25.50